createdAt,value
2023-03-16T00:00:21.686Z,9.20
2023-03-16T00:02:49.211Z,9.00
2023-03-16T00:05:16.963Z,9.73
2023-03-16T00:07:44.562Z,8.87
2023-03-16T00:10:13.297Z,10.27
2023-03-16T00:12:43.974Z,9.83
2023-03-16T00:15:12.911Z,10.33
2023-03-16T00:17:40.299Z,10.10
2023-03-16T00:20:08.135Z,9.40
2023-03-16T00:22:35.619Z,8.43
2023-03-16T00:25:03.408Z,8.70
2023-03-16T00:27:31.012Z,9.23
2023-03-16T00:29:58.467Z,9.10
2023-03-16T00:32:32.469Z,8.60
2023-03-16T00:35:02.347Z,9.43
2023-03-16T00:37:33.006Z,9.97
2023-03-16T00:40:02.281Z,9.10
2023-03-16T00:42:31.554Z,9.10
2023-03-16T00:45:02.127Z,8.63
2023-03-16T00:47:32.977Z,9.00
2023-03-16T00:50:01.737Z,9.37
2023-03-16T00:52:29.565Z,7.97
2023-03-16T00:54:58.681Z,8.80
2023-03-16T00:57:28.817Z,9.70
2023-03-16T00:59:56.545Z,9.03
2023-03-16T01:02:24.888Z,9.27
2023-03-16T01:04:54.966Z,8.50
2023-03-16T01:07:22.910Z,8.80
2023-03-16T01:09:51.491Z,8.83
2023-03-16T01:12:20.019Z,9.20
2023-03-16T01:14:48.214Z,10.33
2023-03-16T01:17:17.866Z,9.10
2023-03-16T01:19:46.077Z,8.83
2023-03-16T01:22:13.884Z,9.17
2023-03-16T01:24:42.058Z,10.13
2023-03-16T01:27:09.465Z,11.00
2023-03-16T01:29:38.032Z,10.17
2023-03-16T01:32:06.686Z,8.90
2023-03-16T01:34:34.878Z,10.60
2023-03-16T01:37:02.672Z,11.00
2023-03-16T01:39:50.460Z,9.27
2023-03-16T01:42:18.247Z,10.07
2023-03-16T01:44:54.614Z,10.57
2023-03-16T01:47:24.222Z,10.90
2023-03-16T01:49:55.108Z,10.47
2023-03-16T01:52:33.494Z,10.77
2023-03-16T01:55:06.149Z,10.30
2023-03-16T01:57:39.017Z,10.30
2023-03-16T02:00:11.145Z,10.23
2023-03-16T02:03:00.329Z,10.33
2023-03-16T02:06:03.426Z,10.07
2023-03-16T02:08:34.240Z,10.37
2023-03-16T02:11:01.845Z,11.30
2023-03-16T02:13:49.216Z,10.57
2023-03-16T02:16:19.715Z,9.80
2023-03-16T02:18:51.796Z,10.27
2023-03-16T02:21:39.650Z,10.43
2023-03-16T02:24:07.199Z,9.77
2023-03-16T02:26:48.119Z,11.30
2023-03-16T02:29:46.570Z,10.23
2023-03-16T02:32:15.551Z,10.13
2023-03-16T02:34:43.428Z,10.73
2023-03-16T02:37:13.138Z,9.50
2023-03-16T02:39:44.250Z,10.40
2023-03-16T02:42:19.662Z,10.07
2023-03-16T02:44:52.391Z,10.97
2023-03-16T02:47:44.053Z,10.10
2023-03-16T02:50:13.753Z,9.90
2023-03-16T02:52:42.071Z,9.93
2023-03-16T02:55:10.097Z,10.20
2023-03-16T02:57:38.214Z,10.60
2023-03-16T03:00:19.278Z,9.93
2023-03-16T03:02:50.159Z,10.27
2023-03-16T03:05:17.717Z,9.80
2023-03-16T03:07:45.162Z,9.50
2023-03-16T03:10:13.913Z,10.10
2023-03-16T03:12:41.422Z,10.17
2023-03-16T03:15:11.202Z,10.17
2023-03-16T03:17:46.957Z,10.30
2023-03-16T03:20:17.103Z,9.87
2023-03-16T03:22:47.767Z,10.57
2023-03-16T03:25:17.478Z,8.90
2023-03-16T03:27:46.192Z,10.10
2023-03-16T03:30:19.921Z,10.20
2023-03-16T03:32:48.614Z,10.00
2023-03-16T03:35:17.714Z,10.00
2023-03-16T03:37:45.286Z,9.03
2023-03-16T03:40:16.316Z,9.30
2023-03-16T03:42:47.724Z,9.23
2023-03-16T03:45:16.077Z,10.13
2023-03-16T03:47:44.363Z,9.80
2023-03-16T03:50:16.613Z,8.93
2023-03-16T03:52:54.081Z,9.47
2023-03-16T03:55:21.540Z,10.03
2023-03-16T03:57:48.813Z,9.93
2023-03-16T04:00:20.620Z,10.83
2023-03-16T04:02:48.845Z,9.53
2023-03-16T04:05:27.652Z,9.23
2023-03-16T04:07:57.597Z,9.67
2023-03-16T04:10:27.221Z,10.00
2023-03-16T04:12:56.727Z,11.60
2023-03-16T04:15:24.460Z,9.77
2023-03-16T04:18:14.937Z,9.23
2023-03-16T04:20:43.658Z,9.63
2023-03-16T04:23:16.848Z,11.50
2023-03-16T04:25:46.777Z,10.13
2023-03-16T04:28:18.191Z,9.57
2023-03-16T04:30:48.538Z,9.30
2023-03-16T04:33:23.257Z,9.43
2023-03-16T04:35:52.469Z,9.60
2023-03-16T04:38:22.355Z,9.63
2023-03-16T04:40:56.834Z,10.23
2023-03-16T04:43:28.298Z,10.57
2023-03-16T04:46:04.451Z,10.73
2023-03-16T04:49:36.603Z,10.43
2023-03-16T04:52:06.122Z,10.53
2023-03-16T04:54:34.008Z,9.60
2023-03-16T04:57:05.150Z,11.67
2023-03-16T04:59:43.678Z,11.50
2023-03-16T05:02:22.109Z,12.73
2023-03-16T05:04:50.200Z,10.93
2023-03-16T05:07:18.708Z,11.67
2023-03-16T05:09:50.480Z,12.80
2023-03-16T05:12:17.936Z,13.20
2023-03-16T05:14:47.160Z,10.47
2023-03-16T05:17:31.562Z,11.60
2023-03-16T05:19:59.391Z,13.60
2023-03-16T05:22:27.541Z,12.70
2023-03-16T05:25:15.101Z,11.60
2023-03-16T05:27:47.464Z,10.73
2023-03-16T05:30:21.816Z,11.20
2023-03-16T05:33:07.423Z,10.43
2023-03-16T05:35:56.178Z,11.87
2023-03-16T05:38:33.937Z,11.20
2023-03-16T05:41:06.056Z,11.70
2023-03-16T05:43:53.830Z,11.60
2023-03-16T05:46:24.210Z,10.80
2023-03-16T05:48:52.817Z,11.70
2023-03-16T05:51:21.743Z,10.20
2023-03-16T05:53:49.489Z,10.93
2023-03-16T05:56:29.575Z,9.03
2023-03-16T05:58:57.760Z,9.47
2023-03-16T06:01:26.914Z,10.23
2023-03-16T06:03:54.587Z,11.37
2023-03-16T06:06:26.323Z,9.17
2023-03-16T06:09:00.319Z,10.30
2023-03-16T06:11:28.764Z,8.93
2023-03-16T06:13:58.117Z,9.67
2023-03-16T06:16:26.272Z,11.13
2023-03-16T06:18:53.766Z,9.90
2023-03-16T06:21:21.399Z,10.03
2023-03-16T06:23:51.514Z,9.27
2023-03-16T06:26:20.400Z,11.33
2023-03-16T06:28:49.784Z,10.30
2023-03-16T06:31:17.379Z,11.47
2023-03-16T06:33:46.751Z,10.20
2023-03-16T06:36:15.173Z,9.53
2023-03-16T06:38:47.604Z,10.80
2023-03-16T06:41:35.986Z,10.37
2023-03-16T06:44:03.731Z,10.97
2023-03-16T06:46:33.212Z,10.80
2023-03-16T06:49:04.469Z,10.70
2023-03-16T06:51:33.267Z,11.20
2023-03-16T06:54:01.574Z,11.17
2023-03-16T06:56:29.753Z,12.03
2023-03-16T06:58:57.087Z,10.20
2023-03-16T07:01:24.598Z,11.10
2023-03-16T07:03:52.033Z,11.93
2023-03-16T07:06:24.543Z,10.90
2023-03-16T07:08:52.032Z,11.30
2023-03-16T07:11:21.542Z,13.53
2023-03-16T07:13:48.919Z,12.40
2023-03-16T07:16:18.614Z,12.97
2023-03-16T07:18:46.107Z,13.23
2023-03-16T07:21:16.493Z,12.37
2023-03-16T07:23:45.399Z,12.67
2023-03-16T07:26:15.114Z,12.17
2023-03-16T07:28:51.115Z,13.17
2023-03-16T07:31:18.609Z,11.87
2023-03-16T07:33:46.817Z,11.93
2023-03-16T07:36:22.055Z,12.73
2023-03-16T07:38:55.441Z,11.17
2023-03-16T07:41:23.039Z,11.20
2023-03-16T07:43:50.434Z,12.33
2023-03-16T07:46:17.958Z,12.17
2023-03-16T07:48:45.895Z,12.47
2023-03-16T07:51:14.395Z,11.40
2023-03-16T07:53:44.445Z,10.83
2023-03-16T07:56:19.425Z,10.90
2023-03-16T07:58:51.699Z,12.07
2023-03-16T08:01:19.070Z,11.70
2023-03-16T08:03:47.346Z,11.87
2023-03-16T08:06:14.812Z,10.57
2023-03-16T08:08:43.167Z,13.30
2023-03-16T08:11:23.789Z,12.83
2023-03-16T08:14:04.232Z,11.77
2023-03-16T08:16:51.845Z,12.17
2023-03-16T08:19:20.431Z,11.07
2023-03-16T08:22:01.066Z,9.37
2023-03-16T08:24:35.640Z,10.30
2023-03-16T08:27:05.073Z,10.67
2023-03-16T08:29:34.645Z,10.90
2023-03-16T08:32:04.312Z,12.43
2023-03-16T08:34:40.135Z,12.03
2023-03-16T08:37:09.951Z,11.33
2023-03-16T08:39:37.660Z,10.80
2023-03-16T08:42:15.408Z,11.70
2023-03-16T08:44:49.560Z,10.17
2023-03-16T08:47:17.309Z,10.00
2023-03-16T08:49:45.488Z,10.60
2023-03-16T08:52:16.141Z,10.40
2023-03-16T08:54:59.739Z,10.63
2023-03-16T08:57:29.567Z,12.23
2023-03-16T08:59:57.364Z,11.60
2023-03-16T09:02:25.812Z,9.70
2023-03-16T09:04:53.157Z,10.60
2023-03-16T09:07:20.685Z,10.43
2023-03-16T09:09:48.015Z,11.13
2023-03-16T09:12:15.427Z,12.43
2023-03-16T09:14:42.754Z,11.60
2023-03-16T09:17:12.018Z,12.67
2023-03-16T09:20:01.364Z,10.07
2023-03-16T09:22:26.715Z,10.67
2023-03-16T09:24:54.048Z,9.53
2023-03-16T09:27:22.731Z,11.33
2023-03-16T09:29:51.072Z,10.00
2023-03-16T09:32:18.592Z,11.50
2023-03-16T09:34:46.041Z,12.10
2023-03-16T09:37:13.916Z,10.63
2023-03-16T09:39:41.322Z,9.50
2023-03-16T09:42:37.363Z,8.90
2023-03-16T09:45:22.202Z,8.97
2023-03-16T09:47:50.898Z,10.13
2023-03-16T09:50:35.123Z,10.07
2023-03-16T09:53:24.973Z,11.93
2023-03-16T09:56:13.808Z,9.67
2023-03-16T09:58:41.249Z,9.30
2023-03-16T10:01:49.987Z,11.00
2023-03-16T10:04:37.719Z,9.93
2023-03-16T10:07:11.550Z,9.07
2023-03-16T10:09:52.850Z,9.97
2023-03-16T10:12:23.490Z,9.20
2023-03-16T10:14:59.288Z,9.77
2023-03-16T10:18:02.276Z,9.93
2023-03-16T10:20:33.370Z,9.20
2023-03-16T10:23:06.330Z,9.10
2023-03-16T10:25:39.871Z,11.13
2023-03-16T10:28:07.669Z,10.23
2023-03-16T10:30:38.788Z,10.37
2023-03-16T10:33:30.100Z,9.37
2023-03-16T10:36:19.571Z,9.27
2023-03-16T10:38:55.573Z,9.57
2023-03-16T10:41:28.493Z,10.53
2023-03-16T10:44:06.498Z,9.13
2023-03-16T10:46:41.382Z,9.07
2023-03-16T10:49:20.732Z,9.00
2023-03-16T10:51:48.274Z,9.80
2023-03-16T10:54:22.048Z,9.53
2023-03-16T10:56:50.738Z,8.60
2023-03-16T10:59:35.634Z,9.73
2023-03-16T11:02:19.628Z,10.50
2023-03-16T11:04:48.185Z,8.57
2023-03-16T11:07:24.494Z,10.10
2023-03-16T11:09:53.054Z,9.07
2023-03-16T11:12:27.662Z,9.33
2023-03-16T11:14:56.542Z,9.73
2023-03-16T11:17:44.950Z,8.70
2023-03-16T11:20:18.713Z,8.47
2023-03-16T11:22:48.598Z,8.07
2023-03-16T11:25:48.310Z,9.73
2023-03-16T11:28:20.336Z,8.57
2023-03-16T11:31:11.172Z,9.00
2023-03-16T11:33:38.551Z,7.10
2023-03-16T11:36:30.079Z,7.80
2023-03-16T11:39:07.826Z,8.03
2023-03-16T11:41:40.954Z,8.63
2023-03-16T11:44:33.605Z,15.07
2023-03-16T11:47:41.111Z,10.03
2023-03-16T11:50:27.582Z,8.17
2023-03-16T11:53:14.032Z,7.87
2023-03-16T11:55:57.881Z,8.03
2023-03-16T11:58:46.872Z,8.37
2023-03-16T12:01:36.807Z,7.53
2023-03-16T12:04:41.405Z,8.10
2023-03-16T12:07:17.803Z,9.70
2023-03-16T12:10:06.121Z,7.63
2023-03-16T12:13:20.189Z,7.93
2023-03-16T12:15:55.451Z,8.70
2023-03-16T12:18:26.052Z,8.97
2023-03-16T12:20:53.348Z,7.83
2023-03-16T12:23:31.653Z,7.17
2023-03-16T12:26:02.062Z,7.00
2023-03-16T12:28:31.789Z,6.73
2023-03-16T12:31:40.190Z,8.03
2023-03-16T12:34:25.890Z,7.23
2023-03-16T12:37:16.300Z,7.80
2023-03-16T12:39:45.942Z,8.83
2023-03-16T12:42:51.834Z,9.60
2023-03-16T12:45:34.465Z,8.30
2023-03-16T12:48:25.076Z,6.60
2023-03-16T12:50:59.077Z,7.17
2023-03-16T12:53:28.962Z,8.53
2023-03-16T12:55:57.507Z,7.80
2023-03-16T12:58:27.691Z,7.80
2023-03-16T13:00:58.514Z,6.73
2023-03-16T13:03:27.953Z,7.53
2023-03-16T13:06:00.930Z,6.50
2023-03-16T13:08:29.181Z,6.30
2023-03-16T13:11:11.589Z,6.60
2023-03-16T13:14:12.865Z,6.87
2023-03-16T13:16:41.387Z,7.47
2023-03-16T13:19:29.956Z,5.87
2023-03-16T13:22:04.374Z,6.53
2023-03-16T13:24:43.168Z,6.17
2023-03-16T13:27:23.478Z,6.27
2023-03-16T13:29:57.555Z,6.13
2023-03-16T13:32:30.274Z,5.37
2023-03-16T13:35:02.560Z,6.17
2023-03-16T13:37:30.852Z,5.30
2023-03-16T13:40:00.616Z,7.43
2023-03-16T13:42:34.638Z,4.90
2023-03-16T13:45:13.597Z,4.63
2023-03-16T13:47:44.121Z,5.23
2023-03-16T13:50:13.916Z,4.10
2023-03-16T13:52:44.338Z,5.33
2023-03-16T13:55:17.685Z,4.70
2023-03-16T13:57:46.303Z,4.37
2023-03-16T14:00:26.535Z,4.03
2023-03-16T14:02:59.325Z,5.80
2023-03-16T14:05:33.543Z,3.80
2023-03-16T14:08:01.392Z,4.90
2023-03-16T14:10:34.719Z,6.10
2023-03-16T14:13:10.566Z,4.90
2023-03-16T14:15:41.050Z,4.67
2023-03-16T14:18:16.639Z,6.27
2023-03-16T14:20:44.106Z,5.80
2023-03-16T14:23:21.108Z,4.97
2023-03-16T14:25:49.800Z,4.03
2023-03-16T14:28:19.826Z,6.07
2023-03-16T14:30:52.483Z,6.57
2023-03-16T14:33:32.813Z,5.70
2023-03-16T14:36:07.927Z,5.70
2023-03-16T14:38:37.369Z,6.30
2023-03-16T14:41:27.334Z,5.60
2023-03-16T14:43:59.265Z,5.17
2023-03-16T14:46:37.805Z,6.40
2023-03-16T14:49:17.388Z,6.60
2023-03-16T14:51:45.934Z,6.57
2023-03-16T14:54:18.359Z,5.37
2023-03-16T14:56:51.888Z,5.23
2023-03-16T14:59:20.079Z,5.30
2023-03-16T15:01:49.786Z,5.57
2023-03-16T15:04:20.871Z,6.73
2023-03-16T15:06:48.568Z,5.90
2023-03-16T15:09:34.590Z,5.97
2023-03-16T15:12:02.303Z,7.20
2023-03-16T15:14:48.356Z,6.27
2023-03-16T15:17:15.692Z,7.67
2023-03-16T15:19:43.158Z,6.40
2023-03-16T15:22:12.930Z,7.33
2023-03-16T15:24:40.467Z,6.50
2023-03-16T15:27:20.244Z,7.13
2023-03-16T15:29:47.675Z,6.57
2023-03-16T15:32:18.343Z,6.50
2023-03-16T15:34:46.825Z,7.03
2023-03-16T15:37:17.380Z,6.60
2023-03-16T15:39:46.921Z,6.43
2023-03-16T15:42:18.806Z,8.10
2023-03-16T15:44:47.053Z,6.50
2023-03-16T15:47:14.886Z,7.20
2023-03-16T15:49:47.792Z,6.63
2023-03-16T15:52:38.129Z,5.63
2023-03-16T15:55:08.544Z,6.03
2023-03-16T15:57:36.888Z,4.80
2023-03-16T16:00:04.862Z,6.40
2023-03-16T16:02:33.207Z,6.63
2023-03-16T16:05:00.968Z,6.03
2023-03-16T16:07:28.314Z,6.80
2023-03-16T16:09:55.846Z,6.13
2023-03-16T16:12:27.105Z,6.43
2023-03-16T16:14:56.511Z,5.97
2023-03-16T16:17:41.104Z,7.13
2023-03-16T16:20:20.732Z,6.27
2023-03-16T16:22:48.088Z,5.90
2023-03-16T16:25:15.819Z,6.63
2023-03-16T16:27:43.192Z,5.43
2023-03-16T16:30:21.697Z,7.13
2023-03-16T16:33:51.952Z,6.40
2023-03-16T16:36:47.886Z,5.47
2023-03-16T16:39:22.958Z,8.27
2023-03-16T16:41:52.334Z,7.07
2023-03-16T16:44:23.670Z,6.53
2023-03-16T16:46:52.245Z,7.17
2023-03-16T16:49:30.993Z,7.80
2023-03-16T16:51:59.172Z,7.13
2023-03-16T16:54:29.659Z,6.10
2023-03-16T16:56:58.461Z,6.07
2023-03-16T16:59:29.408Z,6.23
2023-03-16T17:01:57.582Z,5.57
2023-03-16T17:04:27.384Z,6.40
2023-03-16T17:07:00.903Z,6.90
2023-03-16T17:09:30.342Z,5.60
2023-03-16T17:12:01.858Z,4.37
2023-03-16T17:14:31.160Z,4.73
2023-03-16T17:17:04.922Z,4.47
2023-03-16T17:19:32.862Z,4.77
2023-03-16T17:22:00.114Z,3.43
2023-03-16T17:24:29.033Z,4.13
2023-03-16T17:27:00.340Z,4.50
2023-03-16T17:29:34.456Z,5.27
2023-03-16T17:32:04.423Z,7.43
2023-03-16T17:34:34.167Z,3.47
2023-03-16T17:37:02.063Z,6.13
2023-03-16T17:39:32.297Z,7.03
2023-03-16T17:42:00.407Z,6.27
2023-03-16T17:44:32.964Z,5.67
2023-03-16T17:47:00.248Z,5.03
2023-03-16T17:49:28.716Z,9.03
2023-03-16T17:51:56.362Z,3.27
2023-03-16T17:54:23.764Z,5.13
2023-03-16T17:56:53.744Z,6.20
2023-03-16T17:59:22.997Z,5.20
2023-03-16T18:01:50.752Z,5.33
2023-03-16T18:04:18.912Z,4.57
2023-03-16T18:06:47.528Z,6.27
2023-03-16T18:09:15.918Z,6.17
2023-03-16T18:11:47.648Z,5.10
2023-03-16T18:14:36.521Z,5.57
2023-03-16T18:17:27.802Z,4.97
2023-03-16T18:19:55.257Z,4.23
2023-03-16T18:22:24.671Z,5.60
2023-03-16T18:24:55.851Z,5.60
2023-03-16T18:27:22.905Z,4.70
2023-03-16T18:29:50.051Z,5.47
2023-03-16T18:32:25.429Z,4.63
2023-03-16T18:34:53.342Z,4.10
2023-03-16T18:37:24.082Z,5.03
2023-03-16T18:39:53.008Z,4.10
2023-03-16T18:42:25.917Z,4.60
2023-03-16T18:44:53.266Z,4.23
2023-03-16T18:47:23.236Z,6.77
2023-03-16T18:49:54.100Z,5.40
2023-03-16T18:52:30.182Z,3.40
2023-03-16T18:54:58.354Z,5.83
2023-03-16T18:57:28.137Z,4.57
2023-03-16T18:59:55.447Z,3.77
2023-03-16T19:02:31.858Z,5.03
2023-03-16T19:05:02.132Z,4.47
2023-03-16T19:07:37.367Z,5.80
2023-03-16T19:10:17.738Z,6.57
2023-03-16T19:12:44.870Z,5.33
2023-03-16T19:15:21.784Z,4.60
2023-03-16T19:17:49.379Z,4.57
2023-03-16T19:20:19.470Z,5.70
2023-03-16T19:22:49.125Z,4.60
2023-03-16T19:25:24.948Z,4.70
2023-03-16T19:27:52.636Z,4.30
2023-03-16T19:30:27.077Z,5.30
2023-03-16T19:32:55.585Z,5.23
2023-03-16T19:35:33.760Z,3.87
2023-03-16T19:38:08.442Z,4.47
2023-03-16T19:40:35.757Z,6.20
2023-03-16T19:43:02.892Z,5.77
2023-03-16T19:45:33.959Z,5.60
2023-03-16T19:48:01.809Z,5.23
2023-03-16T19:50:29.667Z,5.03
2023-03-16T19:53:00.164Z,5.37
2023-03-16T19:55:31.593Z,4.50
2023-03-16T19:58:07.654Z,6.13
2023-03-16T20:00:34.908Z,5.33
2023-03-16T20:03:02.010Z,5.43
2023-03-16T20:05:31.033Z,5.33
2023-03-16T20:07:59.627Z,6.27
2023-03-16T20:10:29.113Z,5.20
2023-03-16T20:12:58.723Z,6.63
2023-03-16T20:15:32.293Z,6.27
2023-03-16T20:18:00.127Z,5.53
2023-03-16T20:20:30.355Z,6.17
2023-03-16T20:22:59.713Z,5.80
2023-03-16T20:25:32.342Z,5.93
2023-03-16T20:28:02.205Z,5.87
2023-03-16T20:30:30.768Z,8.07
2023-03-16T20:32:58.251Z,7.83
2023-03-16T20:35:29.478Z,7.47
2023-03-16T20:37:56.739Z,7.60
2023-03-16T20:40:24.284Z,5.87
2023-03-16T20:42:52.395Z,7.00
2023-03-16T20:45:25.795Z,7.13
2023-03-16T20:47:53.750Z,6.93
2023-03-16T20:50:27.083Z,6.93
2023-03-16T20:52:54.841Z,7.50
2023-03-16T20:55:25.198Z,7.40
2023-03-16T20:57:54.366Z,8.63
2023-03-16T21:00:33.363Z,6.77
2023-03-16T21:03:02.247Z,8.07
2023-03-16T21:05:29.885Z,10.17
2023-03-16T21:07:57.567Z,7.07
2023-03-16T21:10:26.183Z,9.67
2023-03-16T21:12:55.685Z,6.67
2023-03-16T21:15:28.679Z,7.57
2023-03-16T21:18:04.848Z,7.70
2023-03-16T21:20:33.863Z,8.33
2023-03-16T21:23:01.569Z,7.60
2023-03-16T21:25:32.773Z,8.57
2023-03-16T21:28:02.516Z,9.57
2023-03-16T21:30:32.963Z,7.27
2023-03-16T21:33:01.954Z,7.93
2023-03-16T21:35:35.268Z,9.83
2023-03-16T21:38:12.238Z,8.87
2023-03-16T21:40:39.378Z,7.83
2023-03-16T21:43:06.462Z,8.20
2023-03-16T21:45:33.651Z,6.87
2023-03-16T21:48:00.809Z,7.50
2023-03-16T21:50:33.867Z,7.37
2023-03-16T21:53:01.386Z,7.07
2023-03-16T21:55:30.085Z,7.80
2023-03-16T21:57:58.991Z,8.27
2023-03-16T22:00:32.217Z,9.27
2023-03-16T22:03:00.958Z,7.30
2023-03-16T22:05:39.884Z,7.87
2023-03-16T22:08:16.119Z,9.20
2023-03-16T22:10:43.449Z,8.63
2023-03-16T22:13:12.005Z,7.33
2023-03-16T22:15:42.586Z,8.33
2023-03-16T22:18:49.009Z,8.77
2023-03-16T22:21:35.105Z,7.93
2023-03-16T22:24:05.386Z,9.07
2023-03-16T22:26:32.765Z,7.67
2023-03-16T22:29:01.002Z,9.60
2023-03-16T22:31:39.234Z,7.77
2023-03-16T22:34:07.398Z,8.57
2023-03-16T22:36:34.700Z,7.83
2023-03-16T22:39:04.646Z,8.30
2023-03-16T22:41:31.947Z,8.30
2023-03-16T22:43:59.675Z,8.70
2023-03-16T22:46:28.168Z,7.73
2023-03-16T22:48:56.876Z,8.40
2023-03-16T22:51:36.433Z,9.43
2023-03-16T22:54:11.194Z,8.80
2023-03-16T22:56:45.167Z,8.00
2023-03-16T22:59:18.763Z,8.00
2023-03-16T23:01:48.756Z,7.60
2023-03-16T23:04:32.492Z,10.17
2023-03-16T23:06:59.817Z,9.00
2023-03-16T23:09:26.999Z,8.80
2023-03-16T23:11:56.619Z,9.20
2023-03-16T23:14:27.785Z,8.73
2023-03-16T23:16:55.448Z,7.53
2023-03-16T23:19:29.963Z,8.00
2023-03-16T23:22:05.117Z,7.43
2023-03-16T23:24:33.750Z,8.17
2023-03-16T23:27:01.259Z,8.37
2023-03-16T23:29:28.518Z,8.07
2023-03-16T23:31:55.792Z,7.40
2023-03-16T23:34:25.067Z,8.10
2023-03-16T23:36:52.639Z,7.03
2023-03-16T23:39:19.762Z,7.13
2023-03-16T23:41:49.692Z,7.73
2023-03-16T23:44:23.501Z,7.23
2023-03-16T23:46:51.028Z,9.07
2023-03-16T23:49:22.870Z,7.40
2023-03-16T23:51:51.078Z,7.63
2023-03-16T23:54:23.464Z,7.50
2023-03-16T23:56:51.243Z,7.43
2023-03-16T23:59:19.589Z,7.70
